Anza Borrego Desert Research Center, California Weather observations

Data are for 10 minute period ending at time listed.
 Day   Time   Solar   Ave.   Ave.  Ave.  Vector  Max.   Baro.   Total    
  of    of     Rad.   Air    Rel.  Wind   Wind   Wind  Press.  Precip.   
Year   Day            Temp.  Hum.  Speed  Dir.   Gust                    
2015   (PST)  Kw/m2    F      %     mph   deg.    mph    mb.     in.     
-------------------------------------------------------------------------
 115    7:30   0.08   63.8    45    2.8     0     6.0   501.8    0.00 
 115    7:40   0.08   63.7    46    5.7     4    10.5   501.8    0.00 
 115    7:50   0.08   63.2    47    7.7   340    12.6   501.8    0.00 
 115    8:00   0.07   63.0    48    8.1   322    14.5   501.8    0.00 
 115    8:10   0.08   63.2    48    4.3   308    12.1   501.8    0.00 
 115    8:20   0.10   63.3    48    5.1   329     8.8   501.8    0.00 
 115    8:30   0.14   63.9    47    6.6   335    18.3   501.8    0.00 
 115    8:40   0.11   63.8    47   10.6   325    20.3   501.8    0.00 
 115    8:50   0.17   64.1    46    4.5    47    10.6   501.8    0.00 
 115    9:00   0.22   64.8    45    2.0    14     5.4   501.8    0.00 
 115    9:10   0.52   66.4    43    4.9    67     9.7   501.8    0.00 
 115    9:20   0.52   67.4    42    2.5   191     4.7   501.8    0.00 
 115    9:30   0.50   69.0    40    6.3   358    18.3   501.8    0.00 
 115    9:40   0.35   66.8    42    6.3    18    13.1   501.8    0.00 
 115    9:50   0.72   68.6    40    7.1     5    14.3   501.8    0.00 
 115   10:00   1.02   70.0    39    9.7   340    18.8   501.8    0.00 
 115   10:10   0.58   69.3    40    8.6   326    15.1   501.8    0.00 
 115   10:20   0.26   68.6    40    4.7   323    11.2   501.8    0.00 
 115   10:30   0.31   68.7    41    7.1   325    16.9   501.8    0.00 
 115   10:40   0.22   67.7    42   12.2   342    25.9   501.8    0.00 
 115   10:50   0.21   67.3    42    6.9   348    13.1   501.8    0.00 
 115   11:00   0.28   67.2    42    8.9   331    17.3   501.8    0.00 
 115   11:10   0.23   68.1    41    5.0    37    11.2   501.8    0.00 
 115   11:20   0.14   67.1    42    6.3    47    14.6   501.8    0.00 
 115   11:30   0.24   66.8    43    9.5   343    20.3   501.8    0.00 
 115   11:40   0.26   67.1    43    6.7     1    13.6   501.8    0.00 
 115   11:50   0.18   67.0    43    5.6    81    12.1   501.8    0.00 
 115   12:00   0.17   66.4    43    7.4   181    14.7   501.8    0.00 
 115   12:10   0.20   66.0    44    8.3   158    14.8   501.8    0.00 
 115   12:20   0.18   66.7    43    2.8   314     9.2   501.8    0.00 
 115   12:30   0.19   65.6    44    8.9   218    18.4   501.8    0.00 
 115   12:40   0.15   65.2    45    8.4   216    21.8   501.8    0.00 
 115   12:50   0.14   64.7    47    9.4   188    22.1   501.8    0.00 
 115   13:00   0.20   64.8    47   11.9   231    24.9   501.8    0.00 
 115   13:10   0.23   65.4    46    3.6   108     8.9   501.8    0.00 
 115   13:20   0.24   65.6    46    7.8    86    13.2   501.8    0.00 
 115   13:30   0.34   66.3    45    8.4   201    18.2   501.8    0.00 
 115   13:40   0.51   67.1    44    5.6   202    17.5   501.8    0.00 
 115   13:50   0.60   67.0    44   11.8   243    30.0   501.8    0.00 
 115   14:00   0.79   66.9    45    6.0   222    20.8   501.8    0.00 
 115   14:10   0.52   68.1    43    8.8   194    23.2   501.8    0.00 
 115   14:20   0.57   68.0    44    8.1   237    18.0   501.8    0.00 
 115   14:30   0.60   68.0    43    6.8   202    17.6   501.8    0.00 
 115   14:40   0.31   66.8    45    7.7   149    20.1   501.8    0.00 
 115   14:50   0.28   66.4    45    7.5    39    23.8   501.8    0.00 
 115   15:00   0.32   66.5    45    6.4    44    12.6   501.8    0.00 
 115   15:10   0.39   66.9    45    5.9   100    14.3   501.8    0.00 
 115   15:20   0.36   66.8    45    5.0    86    12.4   501.8    0.00 
 115   15:30   0.65   68.4    43   12.6   237    28.9   501.8    0.00 
 115   15:40   0.59   67.6    44   11.5   266    28.4   501.8    0.00 
 115   15:50   0.33   67.2    46    8.8   289    23.7   501.8    0.00 
 115   16:00   0.34   66.2    47   14.7   278    32.7   501.8    0.00 
 115   16:10   0.30   65.6    49   12.6   307    25.5   501.8    0.00 
 115   16:20   0.11   64.2    54   12.2   307    21.5   501.8    0.00 
 115   16:30   0.12   63.1    58    6.8   340    12.9   501.8    0.00 
 115   16:40   0.10   63.8    58    5.7   350    15.0   501.8    0.00 
 115   16:50   0.07   63.9    55    7.5   357    14.0   501.8    0.00 
 115   17:00   0.06   63.7    56    2.6    37     6.7   501.8    0.00 
 115   17:10   0.06   63.8    58    3.2     4     7.3   501.8    0.00 
 115   17:20   0.06   63.4    59    5.3    61     9.7   501.8    0.00 
 115   17:30   0.04   63.0    62    6.1    32    11.4   501.8    0.00 
 115   17:40   0.03   62.9    63    4.0    70     8.0   501.8    0.00 
 115   17:50   0.01   62.6    62    5.8    26    12.9   501.8    0.00 
 115   18:00   0.00   62.3    64    5.9   193     9.5   501.8    0.00 
 115   18:10   0.00   62.1    62    7.0   326    16.5   501.8    0.00 
 115   18:20   0.00   63.5    56   11.1   303    28.1   501.8    0.00 
 115   18:30   0.00   63.9    52   21.5   295    46.8   501.8    0.00 
 115   18:40   0.00   64.0    51   20.9   296    36.7   501.8    0.00 
 115   18:50   0.00   63.7    51   22.5   290    34.9   501.8    0.00 
 115   19:00   0.00   63.0    54   23.8   288    41.9   501.8    0.00 
 115   19:10   0.00   63.1    53   19.0   278    32.6   501.8    0.00 
 115   19:20   0.00   63.1    53   17.4   276    30.5   501.8    0.00 
 115   19:30   0.00   62.7    55   21.2   276    40.0   501.8    0.00 
 115   19:40   0.00   62.0    57   21.0   270    33.2   501.8    0.00 
 115   19:50   0.00   62.7    54   17.4   278    30.2   501.8    0.00 
 115   20:00   0.00   62.8    54   20.1   259    37.2   501.8    0.00 
 115   20:10   0.00   62.5    55   19.7   264    32.4   501.8    0.00 
 115   20:20   0.00   62.4    55   12.8   266    28.2   501.8    0.00 
 115   20:30   0.00   62.2    56    9.5   265    17.6   501.8    0.00 
 115   20:40   0.00   61.7    57   11.8   249    19.4   501.8    0.00 
 115   20:50   0.00   61.7    57    4.8   320    11.0   501.8    0.00 
 115   21:00   0.00   62.6    54    5.4   339    12.1   501.8    0.00 
 115   21:10   0.00   62.7    54    9.3   339    17.5   501.8    0.00 
 115   21:20   0.00   62.6    53    9.3   293    17.8   501.8    0.00 
 115   21:30   0.00   62.5    52   12.0   312    19.2   501.8    0.00 
 115   21:40   0.00   62.2    52   12.5   304    23.8   501.8    0.00 
 115   21:50   0.00   62.0    52    9.0   318    20.2   501.8    0.00 
 115   22:00   0.00   61.4    53    5.1   328    10.5   501.8    0.00 
 115   22:10   0.00   62.1    50    8.7     7    22.0   501.8    0.00 
 115   22:20   0.00   62.3    49    8.4   332    25.1   501.8    0.00 
 115   22:30   0.00   62.4    48    3.6   347     9.0   501.8    0.00 
 115   22:40   0.00   61.6    50    7.1   125    15.0   501.8    0.00 
 115   22:50   0.00   60.5    53    9.7   116    14.9   501.7    0.00 
 115   23:00   0.00   60.4    53   11.3   123    16.7   501.7    0.00 
 115   23:10   0.00   60.4    53   11.0   141    14.8   501.7    0.00 
 115   23:20   0.00   60.0    53    8.5   136    12.2   501.7    0.00 
 115   23:30   0.00   60.1    52    3.9    32    10.4   501.7    0.00 
 115   23:40   0.00   59.1    54    3.4   144     9.6   501.7    0.00 
 115   23:50   0.00   58.8    54    6.2   178    10.7   501.7    0.00 
 116    0:00   0.00   59.5    52    7.3   151    13.7   501.7    0.00 
 116    0:10   0.00   59.6    52    7.5   142    11.6   501.7    0.00 
 116    0:20   0.00   59.6    50    7.4   159    11.0   501.7    0.00 
 116    0:30   0.00   61.1    44    3.8   184    10.4   501.7    0.00 
 116    0:40   0.00   61.3    42    8.3   164    12.1   501.7    0.00 
 116    0:50   0.00   62.9    36    6.5   299    19.6   501.7    0.00 
 116    1:00   0.00   65.1    31   15.9   307    29.9   501.7    0.00 
 116    1:10   0.00   65.9    29   20.3   299    38.8   501.8    0.00 
 116    1:20   0.00   66.2    29   25.6   295    44.1   501.8    0.00 
 116    1:30   0.00   66.4    29   26.5   296    46.0   501.8    0.00 
 116    1:40   0.00   66.4    29   27.4   296    41.1   501.8    0.00 
 116    1:50   0.00   66.5    29   26.8   296    42.9   501.8    0.00 
 116    2:00   0.00   66.6    29   23.8   299    39.8   501.8    0.00 
 116    2:10   0.00   66.8    28   23.3   293    37.8   501.8    0.00 
 116    2:20   0.00   67.0    28   21.7   295    35.2   501.8    0.00 
 116    2:30   0.00   66.9    29   25.2   293    39.2   501.8    0.00 
 116    2:40   0.00   66.8    29   23.6   292    35.2   501.8    0.00 
 116    2:50   0.00   66.9    28   18.2   287    32.2   501.8    0.00 
 116    3:00   0.00   66.8    28   12.9   250    31.3   501.8    0.00 
 116    3:10   0.00   66.2    30   17.4   255    34.1   501.8    0.00 
 116    3:20   0.00   65.8    30   17.9   273    34.6   501.8    0.00 
 116    3:30   0.00   66.7    28   17.0   274    30.2   501.8    0.00 
 116    3:40   0.00   66.7    28   19.9   275    37.7   501.8    0.00 
 116    3:50   0.00   66.9    28   16.9   280    28.4   501.8    0.00 
 116    4:00   0.00   66.9    28   12.7   261    26.9   501.8    0.00 
 116    4:10   0.00   66.8    28   13.7   287    25.9   501.8    0.00 
 116    4:20   0.00   64.8    32    9.2   168    17.5   501.8    0.00 
 116    4:30   0.00   62.4    36    7.6   145    11.7   501.8    0.00 
 116    4:40   0.00   62.5    35    6.7   174    12.8   501.8    0.00 
 116    4:50   0.00   63.3    34    6.1   101    11.3   501.8    0.00 
 116    5:00   0.00   61.6    38    6.9    46    12.1   501.8    0.00 
 116    5:10   0.00   62.0    38    4.4   104     9.6   501.8    0.00 
 116    5:20   0.02   61.9    38    4.3   119     8.5   501.8    0.00 
 116    5:30   0.05   61.5    39    3.9   180     9.6   501.8    0.00 
 116    5:40   0.08   61.7    40    7.1   145    10.7   501.8    0.00 
 116    5:50   0.12   63.7    37    3.0    49     8.1   501.8    0.00 
 116    6:00   0.12   64.6    36    4.1   228     7.2   501.8    0.00 
 116    6:10   0.12   63.3    39    5.4   153     7.5   501.8    0.00 
 116    6:20   0.14   63.9    38    1.8    95     6.2   501.8    0.00 
 116    6:30   0.15   65.3    37    2.4   189     5.4   501.8    0.00 
 116    6:40   0.16   64.4    38    7.1   159    11.8   501.8    0.00 
 116    6:50   0.17   63.7    39    8.5   170    10.2   501.8    0.00 
 116    7:00   0.25   64.5    38    7.2   172     9.9   501.8    0.00 
 116    7:10   0.31   65.5    37    8.4   165    12.6   501.8    0.00 
 116    7:20   0.35   65.9    36    7.0   157    11.8   501.8    0.00 

Return to Anza Borrego Desert Research Center graphs page.


Western Regional Climate Center,wrcc@dri.edu